x

Western Caribbean - 195 Nm Wsw Of Negril Jamiaca (42057) Wave Buoy

10:50am - Sun 1st Mar 2015 All times are UTC.

  • Sig Wave height 4.9ft
  • Swell Direction
  • Peak Period 8s
  • Average Period 5s
  • Wind
    20mph, 25mph gusts
  • Sea Temp 81°f
  • Air Temp 81°f
  • Sea Pressure 1016.6mb

More Historic Weather Station data

Upgrade to MSW Pro to gain access to the past 30 days of data for over 8000 Wavebouys and Weather Stations around the globe.

Join Pro

Comparision Forecast

View Surf forecast
   
Sun 03/01 10:50am 5ft 8s 5s 20 25 mph 1016.6mb 81f 81f
9:50am 4.5ft 9s 5s 18 22 mph 1016.1mb 81f 80f
8:50am 4.5ft 8s 5s 18 20 mph 1016.2mb 81f 80f
7:50am 4.5ft 9s 5s 18 22 mph 1016.4mb 81f 81f
6:50am 4.5ft 8s 5s 16 18 mph 1017mb 81f 81f
5:50am 5ft 8s 5s 20 22 mph 1017.6mb 81f 81f
4:50am 5ft 5s 5s 18 20 mph 1018.1mb 81f 81f
3:50am 5ft 7s 5s 18 20 mph 1018.5mb 81f 81f
2:50am 5ft 8s 5s 16 18 mph 1018.3mb 81f 81f
1:50am 5ft 8s 5s 18 20 mph 1017.6mb 81f 81f
12:50am 5ft 8s 5s 18 20 mph 1016.7mb 81f 81f
Sat 02/28 11:50pm 5ft 9s 5s 16 20 mph 1016.2mb 82f 81f
10:50pm 5ft 9s 5s 16 20 mph 1016.1mb 82f 81f
9:50pm 5ft 9s 5s 16 18 mph 1016mb 82f 81f
8:50pm 5ft 7s 5s 16 18 mph 1016mb 82f 81f
7:50pm 5.5ft 8s 5s 16 18 mph 1016.3mb 81f 81f
6:50pm 6ft 6s 5s 18 22 mph 1016.7mb 81f 81f
5:50pm 6ft 9s 5s 18 22 mph 1017.6mb 81f 81f
4:50pm 5ft 9s 5s 20 22 mph 1018.1mb 81f 81f
3:50pm 5ft 7s 5s 18 22 mph 1018.4mb 81f 81f
2:50pm 5ft 8s 5s 20 25 mph 1018.3mb 81f 81f
1:50pm 5ft 6s 5s 20 25 mph 1017.7mb 81f 81f
12:50pm 5ft 8s 5s 18 20 mph 1017.1mb 81f 81f
11:50am 5ft 8s 5s 18 20 mph 1016.3mb 81f 81f
10:50am 4.5ft 8s 5s 18 20 mph 1015.5mb 81f 80f
9:50am 5ft 8s 5s 18 22 mph 1015.1mb 81f 80f
8:50am 4.5ft 6s 5s 18 20 mph 1014.8mb 81f 80f
7:50am 4ft 6s 5s 13 18 mph 1015mb 81f 80f
6:50am 4.5ft 8s 5s 18 20 mph 1015.2mb 81f 80f
5:50am 5ft 8s 5s 18 20 mph 1015.3mb 81f 81f
4:50am 4.5ft 8s 5s 13 20 mph 1015.8mb 81f 80f
3:50am 4.5ft 7s 5s 18 20 mph 1015.7mb 81f 81f
2:50am 4.5ft 7s 5s 18 20 mph 1015.5mb 81f 81f
1:50am 5ft 7s 5s 13 18 mph 1015.6mb 81f 81f
12:50am 5ft 7s 5s 13 18 mph 1014.9mb 81f 81f
Fri 02/27 11:50pm 5ft 8s 6s 13 18 mph 1014.2mb 81f 81f
10:50pm 4.5ft 8s 5s 13 16 mph 1013.7mb 81f 81f
9:50pm 4.5ft 8s 5s 13 16 mph 1013.3mb 81f 81f
8:50pm 4.5ft 9s 6s 13 16 mph 1013.2mb 81f 81f
7:50pm 4.5ft 8s 6s 16 18 mph 1013.5mb 81f 81f
6:50pm 4.5ft 9s 6s 16 20 mph 1014.4mb 81f 81f
5:50pm 4.5ft 8s 6s 11 13 mph 1015.3mb 81f 81f
4:50pm 4.5ft 8s 6s 11 13 mph 1016.1mb 81f 81f
3:50pm 5ft 8s 6s 11
mph
1016.6mb 81f 80f
2:50pm 5ft 8s 6s 11 13 mph 1016.7mb 81f 79f
1:50pm 5ft 8s 6s 11 13 mph 1015.9mb 81f 80f
12:50pm 5ft 8s 6s 13 16 mph 1015.3mb 81f 80f
11:50am 5ft 8s 6s 13 16 mph 1014.6mb 81f 80f
10:50am 5ft 8s 6s 13 16 mph 1013.5mb 80f 80f
9:50am 5ft 8s 6s 13 16 mph 1012.9mb 81f 80f
8:50am 5.5ft 8s 6s 13 16 mph 1012.7mb 81f 80f
7:50am 5ft 8s 6s 13 16 mph 1012.9mb 81f 80f
6:50am 5ft 8s 6s 13 18 mph 1013.2mb 81f 80f
5:50am 5ft 8s 5s 16 20 mph 1013.7mb 81f 80f
4:50am 5.5ft 8s 6s 18 20 mph 1013.9mb 81f 80f
3:50am 5ft 8s 5s 16 20 mph 1014mb 81f 81f
2:50am 5ft 7s 5s 16 20 mph 1013.9mb 81f 81f
1:50am 5ft 8s 6s 16 18 mph 1013.6mb 81f 81f
12:50am 5ft 7s 6s 16 20 mph 1012.7mb 81f 81f
Thu 02/26 11:50pm 5ft 8s 5s 16 18 mph 1012.1mb 81f 81f
10:50pm 5ft 8s 6s 13 16 mph 1012.1mb 81f 81f
9:50pm 5ft 8s 5s 11 13 mph 1011.8mb 81f 81f
8:50pm 5ft 8s 5s 11 13 mph 1011.7mb 81f 81f
7:50pm 4.5ft 9s 5s 16 18 mph 1011.8mb 81f 81f
6:50pm 4.5ft 8s 5s 13 16 mph 1012.5mb 81f 81f
5:50pm 4.5ft 8s 5s 16 18 mph 1013.2mb 81f 81f
4:50pm 4ft 8s 5s 16 18 mph 1013.6mb 81f 81f
3:50pm 4ft 8s 5s 16 18 mph 1014.2mb 81f 81f
2:50pm 4.5ft 8s 5s 16 18 mph 1014.2mb 81f 81f
1:50pm 4ft 8s 5s 16 18 mph 1013.6mb 81f 81f
12:50pm 4ft 8s 5s 16 18 mph 1013.3mb 81f 80f
11:50am 4ft 8s 5s 18 20 mph 1012.5mb 81f 80f
10:50am 4ft 8s 5s 18 22 mph 1011.4mb 81f 80f
9:50am 3.5ft 7s 5s 16 20 mph 1011.1mb 81f 80f
8:50am 3.5ft 8s 5s 18 20 mph 1011mb 81f 80f
7:50am 3.5ft 7s 5s 16 18 mph 1011.3mb 81f 80f
6:50am 3.5ft 7s 5s 16 20 mph 1011.9mb 81f 80f
5:50am 3.5ft 7s 5s 16 20 mph 1012.6mb 81f 80f
4:50am 3.5ft 8s 5s 16 18 mph 1013.1mb 81f 80f
3:50am 3.5ft 8s 5s 16 18 mph 1013.7mb 81f 80f
2:50am 3ft 8s 5s 13 16 mph 1013.7mb 81f 80f
1:50am 3.5ft 8s 5s 11 13 mph 1013.6mb 81f 80f
12:50am 3.5ft 8s 5s 11 13 mph 1013mb 81f 80f
Wed 02/25 11:50pm 3.5ft 7s 5s 13 16 mph 1012.4mb 81f 80f
10:50pm 3.5ft 8s 5s 13 18 mph 1012.2mb 81f 80f
9:50pm 3.5ft 8s 5s 16 18 mph 1011.7mb 81f 81f
8:50pm 3.5ft 8s 5s 13 16 mph 1011.9mb 81f 79f
7:50pm 3.5ft 8s 5s 11 13 mph 1012.5mb 81f 80f
6:50pm 3ft 8s 5s 11 13 mph 1013.1mb 81f 80f
5:50pm 3.5ft 8s 5s 11 13 mph 1013.9mb 81f 80f
4:50pm 3.5ft 8s 6s 11 13 mph 1014.8mb 81f 80f
3:50pm 3.5ft 9s 5s 11 13 mph 1015.3mb 81f 80f
2:50pm 3.5ft 7s 5s 13 16 mph 1015.2mb 81f 80f
1:50pm 3ft 8s 5s 11 13 mph 1014.4mb 81f 80f
12:50pm 3ft 8s 5s 11 13 mph 1013.8mb 81f 79f
11:50am 3.5ft 8s 6s 11 13 mph 1013.3mb 81f 79f